createdAt,value
2023-02-23T00:00:21.146Z,100805.97
2023-02-23T00:01:30.228Z,100813.09
2023-02-23T00:02:43.908Z,100812.25
2023-02-23T00:04:07.198Z,100810.53
2023-02-23T00:05:31.484Z,100805.38
2023-02-23T00:06:54.140Z,100808.03
2023-02-23T00:08:15.975Z,100809.69
2023-02-23T00:09:38.762Z,100803.53
2023-02-23T00:11:00.286Z,100809.84
2023-02-23T00:12:23.906Z,100802.84
2023-02-23T00:13:47.085Z,100807.19
2023-02-23T00:15:10.075Z,100807.19
2023-02-23T00:16:33.016Z,100801.88
2023-02-23T00:17:56.210Z,100808.84
2023-02-23T00:19:17.846Z,100801.88
2023-02-23T00:20:45.132Z,100804.53
2023-02-23T00:22:06.669Z,100802.97
2023-02-23T00:23:29.173Z,100799.56
2023-02-23T00:24:51.660Z,100801.53
2023-02-23T00:26:14.575Z,100797.19
2023-02-23T00:27:38.435Z,100804.28
2023-02-23T00:29:01.373Z,100810.44
2023-02-23T00:30:24.116Z,100800.94
2023-02-23T00:31:47.764Z,100813.25
2023-02-23T00:33:10.394Z,100807.94
2023-02-23T00:34:32.018Z,100805.38
2023-02-23T00:35:55.565Z,100801.84
2023-02-23T00:37:17.917Z,100802.81
2023-02-23T00:38:41.696Z,100808.97
2023-02-23T00:40:05.558Z,100802.81
2023-02-23T00:41:29.577Z,100808.13
2023-02-23T00:42:52.763Z,100800.16
2023-02-23T00:44:15.327Z,100794.03
2023-02-23T00:45:38.105Z,100802.09
2023-02-23T00:47:02.004Z,100791.50
2023-02-23T00:48:24.518Z,100800.31
2023-02-23T00:49:46.072Z,100795.00
2023-02-23T00:51:08.605Z,100796.69
2023-02-23T00:52:30.171Z,100796.56
2023-02-23T00:53:55.540Z,100793.91
2023-02-23T00:55:17.160Z,100796.47
2023-02-23T00:56:40.411Z,100795.63
2023-02-23T00:58:04.362Z,100793.69
2023-02-23T00:59:26.863Z,100798.97
2023-02-23T01:00:49.430Z,100803.44
2023-02-23T01:02:13.293Z,100801.63
2023-02-23T01:03:35.562Z,100801.63
2023-02-23T01:04:58.044Z,100802.63
2023-02-23T01:06:19.877Z,100801.78
2023-02-23T01:07:42.516Z,100800.94
2023-02-23T01:09:09.623Z,100803.66
2023-02-23T01:10:32.231Z,100795.84
2023-02-23T01:11:56.352Z,100794.16
2023-02-23T01:13:19.373Z,100790.66
2023-02-23T01:14:42.448Z,100794.28
2023-02-23T01:16:05.394Z,100796.81
2023-02-23T01:17:30.487Z,100795.09
2023-02-23T01:18:52.080Z,100797.75
2023-02-23T01:20:18.248Z,100793.44
2023-02-23T01:21:42.905Z,100792.59
2023-02-23T01:23:07.347Z,100795.25
2023-02-23T01:24:29.984Z,100791.75
2023-02-23T01:25:51.520Z,100790.03
2023-02-23T01:27:14.018Z,100791.75
2023-02-23T01:28:35.667Z,100791.03
2023-02-23T01:29:58.209Z,100797.16
2023-02-23T01:31:20.876Z,100795.34
2023-02-23T01:32:44.970Z,100791.03
2023-02-23T01:34:07.533Z,100793.56
2023-02-23T01:35:30.583Z,100799.72
2023-02-23T01:36:53.127Z,100794.50
2023-02-23T01:38:15.621Z,100790.03
2023-02-23T01:39:38.232Z,100793.69
2023-02-23T01:41:00.163Z,100791.84
2023-02-23T01:42:22.839Z,100793.81
2023-02-23T01:43:57.389Z,100792.94
2023-02-23T01:45:28.733Z,100792.94
2023-02-23T01:46:52.959Z,100792.94
2023-02-23T01:48:23.039Z,100799.25
2023-02-23T01:49:45.023Z,100799.25
2023-02-23T01:51:15.131Z,100792.25
2023-02-23T01:52:37.627Z,100796.59
2023-02-23T01:54:05.434Z,100794.91
2023-02-23T01:55:29.199Z,100793.09
2023-02-23T01:56:57.943Z,100792.25
2023-02-23T01:58:15.113Z,100800.22
2023-02-23T01:59:19.191Z,100789.69
2023-02-23T02:00:25.613Z,100787.91
2023-02-23T02:01:29.450Z,100796.81
2023-02-23T02:02:33.680Z,100793.19
2023-02-23T02:03:41.340Z,100797.66
2023-02-23T02:04:44.352Z,100785.38
2023-02-23T02:05:49.309Z,100791.50
2023-02-23T02:06:53.733Z,100794.16
2023-02-23T02:07:59.328Z,100796.00
2023-02-23T02:09:06.629Z,100792.50
2023-02-23T02:10:28.960Z,100795.16
2023-02-23T02:11:36.185Z,100787.31
2023-02-23T02:12:38.503Z,100793.44
2023-02-23T02:13:41.250Z,100798.75
2023-02-23T02:14:45.563Z,100793.44
2023-02-23T02:16:18.214Z,100789.00
2023-02-23T02:17:34.101Z,100792.50
2023-02-23T02:18:48.055Z,100789.09
2023-02-23T02:20:32.597Z,100791.75
2023-02-23T02:22:29.925Z,100784.78
2023-02-23T02:24:01.770Z,100790.94
2023-02-23T02:25:30.385Z,100795.41
2023-02-23T02:26:45.037Z,100790.09
2023-02-23T02:28:04.184Z,100786.44
2023-02-23T02:29:34.549Z,100787.44
2023-02-23T02:31:08.949Z,100796.34
2023-02-23T02:32:47.249Z,100793.00
2023-02-23T02:34:06.706Z,100792.25
2023-02-23T02:35:48.297Z,100788.91
2023-02-23T02:37:19.024Z,100788.16
2023-02-23T02:38:32.825Z,100788.28
2023-02-23T02:39:44.772Z,100785.63
2023-02-23T02:40:53.925Z,100789.16
2023-02-23T02:42:05.942Z,100789.16
2023-02-23T02:43:14.215Z,100783.84
2023-02-23T02:44:21.208Z,100788.41
2023-02-23T02:45:27.047Z,100787.69
2023-02-23T02:46:35.002Z,100782.38
2023-02-23T02:47:42.935Z,100781.53
2023-02-23T02:48:51.842Z,100786.00
2023-02-23T02:50:02.665Z,100787.81
2023-02-23T02:51:09.789Z,100784.34
2023-02-23T02:52:19.064Z,100786.00
2023-02-23T02:53:29.797Z,100787.94
2023-02-23T02:54:36.997Z,100787.09
2023-02-23T02:55:43.799Z,100786.25
2023-02-23T02:56:47.146Z,100783.72
2023-02-23T02:57:51.366Z,100787.25
2023-02-23T02:58:53.589Z,100787.25
2023-02-23T03:00:13.862Z,100790.00
2023-02-23T03:01:36.885Z,100786.63
2023-02-23T03:02:59.215Z,100781.44
2023-02-23T03:04:22.938Z,100788.69
2023-02-23T03:05:47.283Z,100782.53
2023-02-23T03:07:15.640Z,100788.78
2023-02-23T03:08:52.157Z,100784.44
2023-02-23T03:10:17.085Z,100787.25
2023-02-23T03:11:37.386Z,100787.25
2023-02-23T03:13:06.779Z,100790.84
2023-02-23T03:14:42.058Z,100794.50
2023-02-23T03:16:14.606Z,100788.34
2023-02-23T03:17:43.959Z,100785.78
2023-02-23T03:19:19.393Z,100788.44
2023-02-23T03:20:48.888Z,100792.09
2023-02-23T03:22:15.589Z,100786.78
2023-02-23T03:23:41.772Z,100786.78
2023-02-23T03:25:11.156Z,100791.34
2023-02-23T03:26:37.512Z,100789.44
2023-02-23T03:28:05.457Z,100788.56
2023-02-23T03:29:33.131Z,100793.03
2023-02-23T03:31:05.237Z,100786.03
2023-02-23T03:32:30.981Z,100790.50
2023-02-23T03:33:59.281Z,100786.03
2023-02-23T03:35:25.512Z,100794.94
2023-02-23T03:36:49.333Z,100792.28
2023-02-23T03:38:14.615Z,100790.50
2023-02-23T03:39:43.019Z,100794.94
2023-02-23T03:41:07.670Z,100790.63
2023-02-23T03:42:34.748Z,100789.63
2023-02-23T03:44:00.515Z,100792.28
2023-02-23T03:45:25.092Z,100788.81
2023-02-23T03:46:48.381Z,100795.94
2023-02-23T03:48:11.980Z,100797.59
2023-02-23T03:49:34.706Z,100800.25
2023-02-23T03:50:58.990Z,100795.78
2023-02-23T03:52:25.933Z,100799.44
2023-02-23T03:53:50.316Z,100802.09
2023-02-23T03:55:15.679Z,100805.81
2023-02-23T03:56:40.108Z,100799.78
2023-02-23T03:58:04.211Z,100802.53
2023-02-23T03:59:26.203Z,100789.41
2023-02-23T04:00:49.679Z,100795.69
2023-02-23T04:02:12.792Z,100801.97
2023-02-23T04:03:36.209Z,100795.91
2023-02-23T04:04:57.179Z,100799.53
2023-02-23T04:06:17.538Z,100795.22
2023-02-23T04:07:38.808Z,100804.84
2023-02-23T04:08:59.397Z,100804.84
2023-02-23T04:10:22.678Z,100803.03
2023-02-23T04:11:47.177Z,100796.78
2023-02-23T04:13:15.076Z,100795.06
2023-02-23T04:14:20.454Z,100804.84
2023-02-23T04:15:27.840Z,100803.16
2023-02-23T04:16:31.445Z,100797.97
2023-02-23T04:17:34.619Z,100805.06
2023-02-23T04:18:38.336Z,100799.78
2023-02-23T04:19:50.245Z,100811.38
2023-02-23T04:20:51.892Z,100804.25
2023-02-23T04:21:54.871Z,100812.22
2023-02-23T04:22:56.942Z,100814.00
2023-02-23T04:23:59.623Z,100805.06
2023-02-23T04:25:01.280Z,100813.03
2023-02-23T04:26:05.396Z,100814.72
2023-02-23T04:27:07.553Z,100808.72
2023-02-23T04:28:10.090Z,100812.31
2023-02-23T04:29:12.721Z,100812.31
2023-02-23T04:30:15.354Z,100814.97
2023-02-23T04:31:18.898Z,100810.63
2023-02-23T04:32:21.775Z,100815.06
2023-02-23T04:33:24.901Z,100811.72
2023-02-23T04:34:27.558Z,100811.72
2023-02-23T04:35:39.661Z,100810.84
2023-02-23T04:36:42.680Z,100814.50
2023-02-23T04:37:44.246Z,100809.19
2023-02-23T04:38:46.754Z,100810.16
2023-02-23T04:39:49.818Z,100816.41
2023-02-23T04:40:53.550Z,100819.06
2023-02-23T04:41:56.474Z,100816.41
2023-02-23T04:42:59.068Z,100811.09
2023-02-23T04:44:00.617Z,100817.34
2023-02-23T04:45:03.155Z,100812.19
2023-02-23T04:46:05.073Z,100812.28
2023-02-23T04:47:07.592Z,100814.94
2023-02-23T04:48:10.414Z,100810.63
2023-02-23T04:49:12.143Z,100811.59
2023-02-23T04:50:15.065Z,100806.28
2023-02-23T04:51:17.240Z,100810.72
2023-02-23T04:52:20.039Z,100815.19
2023-02-23T04:53:21.729Z,100815.19
2023-02-23T04:54:24.291Z,100816.88
2023-02-23T04:55:26.473Z,100810.72
2023-02-23T04:56:29.143Z,100813.38
2023-02-23T04:57:32.037Z,100811.59
2023-02-23T04:58:34.579Z,100813.38
2023-02-23T04:59:36.434Z,100814.34
2023-02-23T05:00:39.295Z,100813.38
2023-02-23T05:01:41.360Z,100816.16
2023-02-23T05:02:44.692Z,100808.22
2023-02-23T05:03:46.321Z,100818.81
2023-02-23T05:04:48.816Z,100811.81
2023-02-23T05:05:50.421Z,100811.81
2023-02-23T05:06:53.060Z,100817.13
2023-02-23T05:07:54.966Z,100815.31
2023-02-23T05:08:57.579Z,100815.44
2023-02-23T05:09:59.234Z,100807.59
2023-02-23T05:11:01.714Z,100819.06
2023-02-23T05:12:03.706Z,100805.06
2023-02-23T05:13:08.788Z,100821.91
2023-02-23T05:14:11.683Z,100813.97
2023-02-23T05:15:14.394Z,100815.81
2023-02-23T05:16:16.412Z,100816.63
2023-02-23T05:17:19.092Z,100819.28
2023-02-23T05:18:21.654Z,100819.28
2023-02-23T05:19:24.303Z,100818.44
2023-02-23T05:20:26.856Z,100823.75
2023-02-23T05:21:28.524Z,100823.75
2023-02-23T05:22:31.030Z,100822.91
2023-02-23T05:23:33.390Z,100823.75
2023-02-23T05:24:39.944Z,100820.13
2023-02-23T05:25:41.499Z,100823.63
2023-02-23T05:26:45.061Z,100827.00
2023-02-23T05:27:46.682Z,100822.53
2023-02-23T05:28:50.590Z,100824.38
2023-02-23T05:29:52.159Z,100825.19
2023-02-23T05:30:54.784Z,100823.38
2023-02-23T05:31:56.667Z,100832.19
2023-02-23T05:32:59.745Z,100828.69
2023-02-23T05:34:01.369Z,100830.38
2023-02-23T05:35:04.424Z,100822.44
2023-02-23T05:36:06.713Z,100827.72
2023-02-23T05:37:10.031Z,100821.47
2023-02-23T05:38:12.813Z,100827.59
2023-02-23T05:39:15.346Z,100825.78
2023-02-23T05:40:16.953Z,100829.44
2023-02-23T05:41:22.299Z,100831.94
2023-02-23T05:42:24.106Z,100828.44
2023-02-23T05:43:27.604Z,100833.63
2023-02-23T05:44:30.527Z,100833.63
2023-02-23T05:45:33.146Z,100829.19
2023-02-23T05:46:36.624Z,100837.13
2023-02-23T05:47:39.697Z,100830.84
2023-02-23T05:48:41.325Z,100834.34
2023-02-23T05:49:46.017Z,100830.84
2023-02-23T05:50:47.968Z,100833.50
2023-02-23T05:51:50.568Z,100830.84
2023-02-23T05:52:52.149Z,100824.72
2023-02-23T05:53:54.998Z,100838.09
2023-02-23T05:54:56.777Z,100832.78
2023-02-23T05:55:59.359Z,100831.09
2023-02-23T05:57:01.925Z,100836.53
2023-02-23T05:58:04.526Z,100832.06
2023-02-23T05:59:06.123Z,100830.47
2023-02-23T06:00:11.899Z,100840.97
2023-02-23T06:01:17.888Z,100839.28
2023-02-23T06:02:20.655Z,100841.09
2023-02-23T06:03:22.665Z,100833.97
2023-02-23T06:04:25.554Z,100843.63
2023-02-23T06:05:27.072Z,100836.63
2023-02-23T06:06:29.668Z,100838.56
2023-02-23T06:07:31.588Z,100837.63
2023-02-23T06:08:34.500Z,100841.94
2023-02-23T06:09:45.771Z,100840.28
2023-02-23T06:10:47.694Z,100841.94
2023-02-23T06:11:50.207Z,100835.06
2023-02-23T06:12:51.761Z,100842.16
2023-02-23T06:13:55.200Z,100843.13
2023-02-23T06:14:57.076Z,100845.78
2023-02-23T06:16:01.137Z,100842.31
2023-02-23T06:17:02.811Z,100844.81
2023-02-23T06:18:05.689Z,100847.47
2023-02-23T06:19:07.852Z,100846.63
2023-02-23T06:20:11.840Z,100847.47
2023-02-23T06:21:13.411Z,100847.47
2023-02-23T06:22:17.327Z,100846.63
2023-02-23T06:23:18.964Z,100844.97
2023-02-23T06:24:23.845Z,100848.44
2023-02-23T06:25:25.403Z,100855.44
2023-02-23T06:26:28.387Z,100847.47
2023-02-23T06:27:30.015Z,100844.81
2023-02-23T06:28:33.149Z,100849.28
2023-02-23T06:29:35.013Z,100854.47
2023-02-23T06:30:39.004Z,100850.97
2023-02-23T06:31:42.056Z,100856.16
2023-02-23T06:32:44.705Z,100854.47
2023-02-23T06:33:46.344Z,100856.16
2023-02-23T06:34:48.914Z,100856.16
2023-02-23T06:35:50.569Z,100853.63
2023-02-23T06:36:53.484Z,100854.47
2023-02-23T06:37:55.199Z,100856.16
2023-02-23T06:38:58.824Z,100860.50
2023-02-23T06:40:07.740Z,100853.38
2023-02-23T06:41:11.683Z,100864.00
2023-02-23T06:42:13.271Z,100861.34
2023-02-23T06:43:15.862Z,100865.78
2023-02-23T06:44:17.439Z,100861.47
2023-02-23T06:45:20.169Z,100873.03
2023-02-23T06:46:22.044Z,100872.28
2023-02-23T06:47:26.058Z,100872.28
2023-02-23T06:48:27.808Z,100866.97
2023-02-23T06:49:30.302Z,100873.13
2023-02-23T06:50:31.955Z,100873.97
2023-02-23T06:51:34.591Z,100879.28
2023-02-23T06:52:36.627Z,100880.13
2023-02-23T06:53:39.155Z,100881.09
2023-02-23T06:54:41.706Z,100877.59
2023-02-23T06:55:44.736Z,100882.88
2023-02-23T06:56:46.397Z,100887.38
2023-02-23T06:57:51.419Z,100883.88
2023-02-23T06:58:53.168Z,100890.13
2023-02-23T06:59:55.908Z,100884.81
2023-02-23T07:00:59.475Z,100883.13
2023-02-23T07:02:01.588Z,100891.91
2023-02-23T07:03:06.790Z,100879.53
2023-02-23T07:04:09.415Z,100884.81
2023-02-23T07:05:11.440Z,100887.47
2023-02-23T07:06:14.034Z,100892.78
2023-02-23T07:07:15.893Z,100893.72
2023-02-23T07:08:20.140Z,100886.75
2023-02-23T07:09:21.746Z,100892.06
2023-02-23T07:10:24.392Z,100893.72
2023-02-23T07:11:25.974Z,100899.88
2023-02-23T07:12:28.489Z,100901.56
2023-02-23T07:13:30.013Z,100900.72
2023-02-23T07:14:34.070Z,100897.97
2023-02-23T07:15:36.461Z,100904.09
2023-02-23T07:16:40.001Z,100904.09
2023-02-23T07:17:41.551Z,100911.09
2023-02-23T07:18:45.437Z,100905.78
2023-02-23T07:19:46.980Z,100903.28
2023-02-23T07:20:51.712Z,100911.09
2023-02-23T07:21:54.509Z,100908.44
2023-02-23T07:22:56.022Z,100902.28
2023-02-23T07:23:58.925Z,100912.78
2023-02-23T07:25:01.882Z,100913.50
2023-02-23T07:26:04.453Z,100910.84
2023-02-23T07:27:06.003Z,100914.25
2023-02-23T07:28:08.513Z,100913.28
2023-02-23T07:29:12.202Z,100907.88
2023-02-23T07:30:15.277Z,100908.72
2023-02-23T07:31:18.903Z,100910.38
2023-02-23T07:32:21.787Z,100910.38
2023-02-23T07:33:24.037Z,100924.38
2023-02-23T07:34:28.099Z,100919.09
2023-02-23T07:35:30.643Z,100916.31
2023-02-23T07:36:32.463Z,100921.50
2023-02-23T07:37:35.028Z,100917.91
2023-02-23T07:38:36.621Z,100928.50
2023-02-23T07:39:39.451Z,100924.88
2023-02-23T07:40:42.522Z,100922.22
2023-02-23T07:41:44.187Z,100928.38
2023-02-23T07:42:46.769Z,100923.06
2023-02-23T07:43:48.432Z,100928.38
2023-02-23T07:44:51.077Z,100920.41
2023-02-23T07:45:52.725Z,100922.97
2023-02-23T07:46:55.251Z,100922.97
2023-02-23T07:47:56.825Z,100929.94
2023-02-23T07:48:59.449Z,100926.44
2023-02-23T07:50:03.416Z,100934.28
2023-02-23T07:51:10.314Z,100924.53
2023-02-23T07:52:11.864Z,100929.00
2023-02-23T07:53:15.133Z,100931.53
2023-02-23T07:54:16.850Z,100934.19
2023-02-23T07:55:19.703Z,100931.53
2023-02-23T07:56:21.540Z,100931.53
2023-02-23T07:57:25.086Z,100934.28
2023-02-23T07:58:26.885Z,100941.28
2023-02-23T07:59:29.567Z,100939.59
2023-02-23T08:00:32.740Z,100949.25
2023-02-23T08:01:35.956Z,100943.09
2023-02-23T08:02:37.552Z,100944.91
2023-02-23T08:03:40.542Z,100942.97
2023-02-23T08:04:43.053Z,100942.00
2023-02-23T08:05:47.029Z,100952.50
2023-02-23T08:06:48.556Z,100948.03
2023-02-23T08:07:51.069Z,100945.50
2023-02-23T08:08:52.713Z,100945.50
2023-02-23T08:09:55.228Z,100944.66
2023-02-23T08:10:59.995Z,100950.91
2023-02-23T08:12:02.681Z,100945.75
2023-02-23T08:13:04.477Z,100950.19
2023-02-23T08:14:07.368Z,100949.25
2023-02-23T08:15:09.953Z,100945.63
2023-02-23T08:16:12.607Z,100953.56
2023-02-23T08:17:15.287Z,100956.97
2023-02-23T08:18:17.530Z,100959.72
2023-02-23T08:19:22.690Z,100949.13
2023-02-23T08:20:25.626Z,100956.22
2023-02-23T08:21:30.467Z,100956.13
2023-02-23T08:22:47.145Z,100951.66
2023-02-23T08:23:51.320Z,100958.63
2023-02-23T08:24:52.917Z,100960.34
2023-02-23T08:25:55.554Z,100957.69
2023-02-23T08:26:57.529Z,100954.19
2023-02-23T08:28:04.779Z,100961.19
2023-02-23T08:29:07.471Z,100963.75
2023-02-23T08:30:10.658Z,100960.09
2023-02-23T08:31:13.452Z,100967.09
2023-02-23T08:32:16.744Z,100964.47
2023-02-23T08:33:19.310Z,100972.41
2023-02-23T08:34:22.666Z,100969.88
2023-02-23T08:35:25.278Z,100979.66
2023-02-23T08:36:29.597Z,100975.28
2023-02-23T08:37:31.673Z,100978.91
2023-02-23T08:38:36.480Z,100980.69
2023-02-23T08:39:38.036Z,100971.91
2023-02-23T08:40:41.360Z,100985.16
2023-02-23T08:41:42.921Z,100979.84
2023-02-23T08:42:45.591Z,100985.16
2023-02-23T08:43:59.539Z,100984.22
2023-02-23T08:45:05.502Z,100976.25
2023-02-23T08:46:10.652Z,100982.31
2023-02-23T08:47:13.183Z,100977.94
2023-02-23T08:48:15.267Z,100982.31
2023-02-23T08:49:18.078Z,100976.00
2023-02-23T08:50:19.800Z,100981.22
2023-02-23T08:51:22.485Z,100982.06
2023-02-23T08:52:25.538Z,100984.59
2023-02-23T08:53:29.606Z,100988.94
2023-02-23T08:54:32.116Z,100981.94
2023-02-23T08:55:35.509Z,100978.34
2023-02-23T08:56:38.072Z,100983.72
2023-02-23T08:57:39.837Z,100980.22
2023-02-23T08:58:43.070Z,100990.84
2023-02-23T08:59:45.561Z,100983.88
2023-02-23T09:00:47.125Z,100983.03
2023-02-23T09:01:50.211Z,100981.09
2023-02-23T09:02:53.995Z,100981.09
2023-02-23T09:03:56.507Z,100981.94
2023-02-23T09:04:58.999Z,100980.97
2023-02-23T09:06:07.990Z,100979.03
2023-02-23T09:07:14.421Z,100982.56
2023-02-23T09:08:18.979Z,100984.97
2023-02-23T09:09:21.457Z,100991.03
2023-02-23T09:10:24.855Z,100988.38
2023-02-23T09:11:27.522Z,100986.53
2023-02-23T09:12:29.401Z,100994.38
2023-02-23T09:13:32.030Z,100991.75
2023-02-23T09:14:33.674Z,100992.44
2023-02-23T09:15:36.319Z,101001.16
2023-02-23T09:16:39.047Z,100992.22
2023-02-23T09:17:42.793Z,100992.22
2023-02-23T09:18:45.698Z,100995.84
2023-02-23T09:19:48.171Z,100997.53
2023-02-23T09:20:51.596Z,100990.31
2023-02-23T09:21:53.556Z,100992.81
2023-02-23T09:22:56.252Z,100993.69
2023-02-23T09:24:01.215Z,100994.53
2023-02-23T09:25:04.786Z,100992.59
2023-02-23T09:26:08.309Z,100989.84
2023-02-23T09:27:12.773Z,100992.50
2023-02-23T09:28:17.359Z,101001.31
2023-02-23T09:29:19.941Z,101004.06
2023-02-23T09:30:23.101Z,101001.53
2023-02-23T09:31:25.120Z,100999.84
2023-02-23T09:32:27.801Z,101004.28
2023-02-23T09:33:29.487Z,101000.69
2023-02-23T09:34:32.025Z,101002.34
2023-02-23T09:35:36.111Z,101002.34
2023-02-23T09:36:39.069Z,101004.06
2023-02-23T09:37:40.979Z,101005.75
2023-02-23T09:38:43.763Z,101005.75
2023-02-23T09:39:48.675Z,101004.81
2023-02-23T09:40:53.131Z,101008.41
2023-02-23T09:42:08.354Z,101013.59
2023-02-23T09:43:16.213Z,101014.44
2023-02-23T09:44:26.321Z,101011.91
2023-02-23T09:45:36.798Z,101012.75
2023-02-23T09:46:44.761Z,101018.06
2023-02-23T09:47:59.824Z,101023.38
2023-02-23T09:49:04.687Z,101018.88
2023-02-23T09:50:14.565Z,101017.84
2023-02-23T09:51:21.814Z,101023.13
2023-02-23T09:52:28.258Z,101018.53
2023-02-23T09:53:44.041Z,101029.16
2023-02-23T09:54:47.262Z,101023.84
2023-02-23T09:55:52.627Z,101024.56
2023-02-23T09:56:56.289Z,101035.19
2023-02-23T09:58:06.814Z,101025.41
2023-02-23T09:59:15.420Z,101025.56
2023-02-23T10:00:20.266Z,101028.31
2023-02-23T10:01:55.109Z,101035.19
2023-02-23T10:03:24.581Z,101027.22
2023-02-23T10:04:30.294Z,101035.19
2023-02-23T10:05:39.456Z,101031.59
2023-02-23T10:06:45.450Z,101028.31
2023-02-23T10:07:55.420Z,101040.72
2023-02-23T10:09:07.237Z,101039.06
2023-02-23T10:10:22.679Z,101039.06
2023-02-23T10:11:29.322Z,101040.00
2023-02-23T10:12:39.927Z,101040.00
2023-02-23T10:13:51.112Z,101040.72
2023-02-23T10:15:06.375Z,101039.06
2023-02-23T10:16:16.467Z,101047.03
2023-02-23T10:17:29.697Z,101045.41
2023-02-23T10:18:46.426Z,101048.22
2023-02-23T10:19:54.350Z,101044.81
2023-02-23T10:21:04.100Z,101053.75
2023-02-23T10:22:10.046Z,101053.97
2023-02-23T10:23:16.431Z,101054.22
2023-02-23T10:24:22.898Z,101056.13
2023-02-23T10:25:36.424Z,101058.91
2023-02-23T10:26:52.909Z,101057.19
2023-02-23T10:27:58.277Z,101056.34
2023-02-23T10:29:21.881Z,101063.34
2023-02-23T10:30:27.706Z,101058.06
2023-02-23T10:31:37.938Z,101060.72
2023-02-23T10:32:46.849Z,101061.44
2023-02-23T10:33:48.598Z,101060.56
2023-02-23T10:34:56.416Z,101059.53
2023-02-23T10:36:13.223Z,101063.13
2023-02-23T10:37:18.534Z,101072.03
2023-02-23T10:38:20.141Z,101062.41
2023-02-23T10:39:23.071Z,101062.50
2023-02-23T10:40:28.986Z,101066.00
2023-02-23T10:41:32.208Z,101066.97
2023-02-23T10:42:35.183Z,101066.09
2023-02-23T10:43:37.006Z,101070.59
2023-02-23T10:44:39.820Z,101066.00
2023-02-23T10:45:46.900Z,101068.66
2023-02-23T10:46:55.643Z,101072.25
2023-02-23T10:48:02.790Z,101065.28
2023-02-23T10:49:04.843Z,101070.59
2023-02-23T10:50:10.907Z,101065.28
2023-02-23T10:51:21.038Z,101067.94
2023-02-23T10:52:31.655Z,101065.28
2023-02-23T10:53:37.306Z,101064.44
2023-02-23T10:54:45.501Z,101059.13
2023-02-23T10:56:00.573Z,101068.75
2023-02-23T10:57:05.680Z,101068.66
2023-02-23T10:58:17.231Z,101059.00
2023-02-23T10:59:21.439Z,101066.72
2023-02-23T11:00:33.151Z,101061.19
2023-02-23T11:01:41.799Z,101060.97
2023-02-23T11:02:47.824Z,101059.91
2023-02-23T11:04:05.449Z,101057.03
2023-02-23T11:05:28.773Z,101069.19
2023-02-23T11:06:35.636Z,101061.97
2023-02-23T11:07:37.576Z,101067.25
2023-02-23T11:08:41.176Z,101061.00
2023-02-23T11:09:47.407Z,101068.72
2023-02-23T11:11:25.357Z,101063.44
2023-02-23T11:12:41.731Z,101068.72
2023-02-23T11:13:46.149Z,101069.59
2023-02-23T11:14:48.234Z,101069.59
2023-02-23T11:16:00.202Z,101077.53
2023-02-23T11:17:02.863Z,101066.94
2023-02-23T11:18:05.811Z,101067.03
2023-02-23T11:19:22.824Z,101072.09
2023-02-23T11:20:30.620Z,101065.75
2023-02-23T11:21:35.817Z,101076.22
2023-02-23T11:22:41.651Z,101068.25
2023-02-23T11:23:45.231Z,101069.09
2023-02-23T11:24:46.867Z,101074.41
2023-02-23T11:25:52.460Z,101072.47
2023-02-23T11:26:57.880Z,101075.03
2023-02-23T11:28:01.006Z,101075.03
2023-02-23T11:29:12.409Z,101075.03
2023-02-23T11:30:14.492Z,101076.00
2023-02-23T11:31:21.915Z,101069.97
2023-02-23T11:32:29.250Z,101074.41
2023-02-23T11:33:35.827Z,101070.91
2023-02-23T11:34:40.681Z,101063.94
2023-02-23T11:35:42.378Z,101074.56
2023-02-23T11:36:44.950Z,101065.84
2023-02-23T11:37:47.520Z,101059.81
2023-02-23T11:39:03.138Z,101055.59
2023-02-23T11:40:22.843Z,101057.41
2023-02-23T11:41:25.404Z,101053.03
2023-02-23T11:42:33.404Z,101061.00
2023-02-23T11:43:37.408Z,101060.16
2023-02-23T11:44:39.054Z,101059.44
2023-02-23T11:45:47.943Z,101060.28
2023-02-23T11:46:51.373Z,101057.50
2023-02-23T11:47:56.723Z,101056.41
2023-02-23T11:49:01.711Z,101063.44
2023-02-23T11:50:05.646Z,101058.13
2023-02-23T11:51:07.636Z,101061.72
2023-02-23T11:52:16.227Z,101060.16
2023-02-23T11:53:22.269Z,101063.91
2023-02-23T11:54:30.501Z,101066.78
2023-02-23T11:55:35.660Z,101059.28
2023-02-23T11:56:37.321Z,101065.78
2023-02-23T11:57:39.865Z,101065.88
2023-02-23T11:58:46.383Z,101062.50
2023-02-23T11:59:49.477Z,101055.50
2023-02-23T12:00:56.111Z,101061.66
2023-02-23T12:02:07.370Z,101056.47
2023-02-23T12:03:21.724Z,101060.09
2023-02-23T12:04:29.456Z,101061.88
2023-02-23T12:05:33.212Z,101068.28
2023-02-23T12:06:39.010Z,101067.44
2023-02-23T12:07:47.153Z,101060.31
2023-02-23T12:08:54.593Z,101058.38
2023-02-23T12:10:03.322Z,101062.84
2023-02-23T12:11:12.318Z,101063.81
2023-02-23T12:12:19.515Z,101062.97
2023-02-23T12:13:30.075Z,101061.28
2023-02-23T12:14:41.385Z,101051.75
2023-02-23T12:15:51.285Z,101057.03
2023-02-23T12:16:58.060Z,101062.59
2023-02-23T12:18:04.686Z,101058.97
2023-02-23T12:19:19.644Z,101060.88
2023-02-23T12:20:26.397Z,101050.28
2023-02-23T12:21:35.230Z,101058.22
2023-02-23T12:22:44.540Z,101062.59
2023-02-23T12:23:52.535Z,101051.97
2023-02-23T12:25:02.768Z,101048.13
2023-02-23T12:26:12.646Z,101048.75
2023-02-23T12:27:18.064Z,101053.84
2023-02-23T12:28:27.192Z,101053.69
2023-02-23T12:29:36.688Z,101049.16
2023-02-23T12:30:47.310Z,101050.81
2023-02-23T12:31:54.376Z,101053.38
2023-02-23T12:33:02.721Z,101057.59
2023-02-23T12:34:13.491Z,101055.66
2023-02-23T12:35:20.178Z,101058.06
2023-02-23T12:36:33.177Z,101055.22
2023-02-23T12:37:39.561Z,101056.88
2023-02-23T12:38:50.329Z,101062.19
2023-02-23T12:39:58.752Z,101067.50
2023-02-23T12:41:07.812Z,101054.13
2023-02-23T12:42:20.446Z,101054.00
2023-02-23T12:43:30.017Z,101055.69
2023-02-23T12:44:42.945Z,101061.84
2023-02-23T12:45:52.498Z,101055.59
2023-02-23T12:46:59.646Z,101058.97
2023-02-23T12:48:13.265Z,101068.50
2023-02-23T12:49:25.268Z,101063.19
2023-02-23T12:50:31.961Z,101054.28
2023-02-23T12:51:40.293Z,101057.88
2023-02-23T12:52:49.041Z,101053.31
2023-02-23T12:53:53.078Z,101057.66
2023-02-23T12:54:56.433Z,101055.84
2023-02-23T12:56:07.785Z,101055.97
2023-02-23T12:57:23.716Z,101059.44
2023-02-23T12:58:34.785Z,101062.09
2023-02-23T13:00:00.658Z,101064.66
2023-02-23T13:01:17.548Z,101055.75
2023-02-23T13:02:25.845Z,101061.03
2023-02-23T13:03:46.161Z,101059.34
2023-02-23T13:05:15.301Z,101060.44
2023-02-23T13:06:23.744Z,101064.88
2023-02-23T13:07:35.131Z,101058.84
2023-02-23T13:08:57.367Z,101061.72
2023-02-23T13:10:13.182Z,101065.13
2023-02-23T13:11:27.626Z,101054.50
2023-02-23T13:12:51.938Z,101060.66
2023-02-23T13:14:01.870Z,101056.31
2023-02-23T13:15:19.660Z,101056.41